sensor_id;sensor_type;location;lat;lon;timestamp;P1;durP1;ratioP1;P2;durP2;ratioP2
78156;SDS011;67400;49.360;8.266;2023-07-28T00:00:04;3.00;;;2.50;;
78156;SDS011;67400;49.360;8.266;2023-07-28T00:01:29;3.03;;;2.20;;
78156;SDS011;67400;49.360;8.266;2023-07-28T00:02:48;3.90;;;2.22;;
78156;SDS011;67400;49.360;8.266;2023-07-28T00:04:08;2.92;;;2.03;;
78156;SDS011;67400;49.360;8.266;2023-07-28T00:05:29;2.70;;;1.73;;
78156;SDS011;67400;49.360;8.266;2023-07-28T00:06:49;2.15;;;1.88;;
78156;SDS011;67400;49.360;8.266;2023-07-28T00:08:09;3.20;;;1.90;;
78156;SDS011;67400;49.360;8.266;2023-07-28T00:09:28;2.30;;;1.73;;
78156;SDS011;67400;49.360;8.266;2023-07-28T00:10:48;2.15;;;1.70;;
78156;SDS011;67400;49.360;8.266;2023-07-28T00:12:08;3.70;;;2.30;;
78156;SDS011;67400;49.360;8.266;2023-07-28T00:13:27;3.97;;;2.38;;
78156;SDS011;67400;49.360;8.266;2023-07-28T00:14:47;4.18;;;2.22;;
78156;SDS011;67400;49.360;8.266;2023-07-28T00:16:07;3.53;;;2.10;;
78156;SDS011;67400;49.360;8.266;2023-07-28T00:17:27;5.05;;;2.10;;
78156;SDS011;67400;49.360;8.266;2023-07-28T00:18:47;3.53;;;2.15;;
78156;SDS011;67400;49.360;8.266;2023-07-28T00:20:07;2.42;;;1.95;;
78156;SDS011;67400;49.360;8.266;2023-07-28T00:21:26;2.53;;;2.03;;
78156;SDS011;67400;49.360;8.266;2023-07-28T00:22:46;2.67;;;1.80;;
78156;SDS011;67400;49.360;8.266;2023-07-28T00:24:06;4.85;;;2.00;;
78156;SDS011;67400;49.360;8.266;2023-07-28T00:25:26;2.58;;;1.92;;
78156;SDS011;67400;49.360;8.266;2023-07-28T00:26:45;3.72;;;2.10;;
78156;SDS011;67400;49.360;8.266;2023-07-28T00:28:05;5.72;;;1.98;;
78156;SDS011;67400;49.360;8.266;2023-07-28T00:29:25;2.33;;;2.00;;
78156;SDS011;67400;49.360;8.266;2023-07-28T00:30:48;3.90;;;2.17;;
78156;SDS011;67400;49.360;8.266;2023-07-28T00:32:08;2.55;;;2.08;;
78156;SDS011;67400;49.360;8.266;2023-07-28T00:33:29;3.50;;;2.20;;
78156;SDS011;67400;49.360;8.266;2023-07-28T00:34:49;3.17;;;2.30;;
78156;SDS011;67400;49.360;8.266;2023-07-28T00:36:09;3.35;;;2.35;;
78156;SDS011;67400;49.360;8.266;2023-07-28T00:37:29;3.83;;;2.00;;
78156;SDS011;67400;49.360;8.266;2023-07-28T00:38:49;4.68;;;2.20;;
78156;SDS011;67400;49.360;8.266;2023-07-28T00:40:09;3.22;;;2.40;;
78156;SDS011;67400;49.360;8.266;2023-07-28T00:41:29;3.80;;;1.90;;
78156;SDS011;67400;49.360;8.266;2023-07-28T00:42:49;2.92;;;2.35;;
78156;SDS011;67400;49.360;8.266;2023-07-28T00:44:09;2.90;;;2.40;;
78156;SDS011;67400;49.360;8.266;2023-07-28T00:45:29;4.05;;;2.10;;
78156;SDS011;67400;49.360;8.266;2023-07-28T00:46:50;3.13;;;2.42;;
78156;SDS011;67400;49.360;8.266;2023-07-28T00:48:11;8.20;;;2.67;;
78156;SDS011;67400;49.360;8.266;2023-07-28T00:49:31;2.60;;;2.25;;
78156;SDS011;67400;49.360;8.266;2023-07-28T00:50:51;2.97;;;2.20;;
78156;SDS011;67400;49.360;8.266;2023-07-28T00:52:13;2.72;;;2.15;;
78156;SDS011;67400;49.360;8.266;2023-07-28T00:53:32;3.28;;;2.25;;
78156;SDS011;67400;49.360;8.266;2023-07-28T00:54:52;3.17;;;2.40;;
78156;SDS011;67400;49.360;8.266;2023-07-28T00:56:12;3.30;;;2.50;;
78156;SDS011;67400;49.360;8.266;2023-07-28T00:57:32;4.03;;;2.22;;
78156;SDS011;67400;49.360;8.266;2023-07-28T00:58:52;3.15;;;2.30;;
78156;SDS011;67400;49.360;8.266;2023-07-28T01:00:12;4.93;;;2.33;;
78156;SDS011;67400;49.360;8.266;2023-07-28T01:01:31;3.53;;;2.08;;
78156;SDS011;67400;49.360;8.266;2023-07-28T01:02:51;3.03;;;2.20;;
78156;SDS011;67400;49.360;8.266;2023-07-28T01:04:11;4.25;;;2.63;;
78156;SDS011;67400;49.360;8.266;2023-07-28T01:07:21;3.28;;;2.47;;
78156;SDS011;67400;49.360;8.266;2023-07-28T01:08:56;3.72;;;2.47;;
78156;SDS011;67400;49.360;8.266;2023-07-28T01:10:18;3.67;;;2.30;;
78156;SDS011;67400;49.360;8.266;2023-07-28T01:13:14;2.92;;;2.45;;
78156;SDS011;67400;49.360;8.266;2023-07-28T01:14:33;3.22;;;2.47;;
78156;SDS011;67400;49.360;8.266;2023-07-28T01:15:53;4.57;;;2.70;;
78156;SDS011;67400;49.360;8.266;2023-07-28T01:17:12;4.07;;;2.70;;
78156;SDS011;67400;49.360;8.266;2023-07-28T01:18:32;3.13;;;2.40;;
78156;SDS011;67400;49.360;8.266;2023-07-28T01:19:52;3.78;;;2.60;;
78156;SDS011;67400;49.360;8.266;2023-07-28T01:21:14;3.47;;;2.15;;
78156;SDS011;67400;49.360;8.266;2023-07-28T01:24:01;5.00;;;2.38;;
78156;SDS011;67400;49.360;8.266;2023-07-28T01:26:46;4.22;;;2.20;;
78156;SDS011;67400;49.360;8.266;2023-07-28T01:28:07;3.45;;;2.20;;
78156;SDS011;67400;49.360;8.266;2023-07-28T01:29:27;4.82;;;2.20;;
78156;SDS011;67400;49.360;8.266;2023-07-28T01:30:47;3.47;;;1.90;;
78156;SDS011;67400;49.360;8.266;2023-07-28T01:32:07;3.00;;;2.20;;
78156;SDS011;67400;49.360;8.266;2023-07-28T01:33:27;3.10;;;1.95;;
78156;SDS011;67400;49.360;8.266;2023-07-28T01:34:46;4.60;;;2.33;;
78156;SDS011;67400;49.360;8.266;2023-07-28T01:36:06;3.00;;;1.92;;
78156;SDS011;67400;49.360;8.266;2023-07-28T01:37:25;3.55;;;2.17;;
78156;SDS011;67400;49.360;8.266;2023-07-28T01:38:45;3.25;;;2.17;;
78156;SDS011;67400;49.360;8.266;2023-07-28T01:40:05;4.15;;;2.40;;
78156;SDS011;67400;49.360;8.266;2023-07-28T01:41:25;2.90;;;2.15;;
78156;SDS011;67400;49.360;8.266;2023-07-28T01:42:45;4.38;;;2.20;;
78156;SDS011;67400;49.360;8.266;2023-07-28T01:44:05;3.03;;;2.17;;
78156;SDS011;67400;49.360;8.266;2023-07-28T01:45:25;4.47;;;2.08;;
78156;SDS011;67400;49.360;8.266;2023-07-28T01:46:44;2.85;;;2.08;;
78156;SDS011;67400;49.360;8.266;2023-07-28T01:48:04;2.25;;;1.90;;
78156;SDS011;67400;49.360;8.266;2023-07-28T01:49:24;2.38;;;1.90;;
78156;SDS011;67400;49.360;8.266;2023-07-28T01:50:44;2.90;;;2.10;;
78156;SDS011;67400;49.360;8.266;2023-07-28T01:52:04;4.63;;;2.13;;
78156;SDS011;67400;49.360;8.266;2023-07-28T01:53:23;3.53;;;1.83;;
78156;SDS011;67400;49.360;8.266;2023-07-28T01:54:43;3.75;;;2.00;;
78156;SDS011;67400;49.360;8.266;2023-07-28T01:56:03;2.70;;;1.90;;
78156;SDS011;67400;49.360;8.266;2023-07-28T01:57:23;2.95;;;2.10;;
78156;SDS011;67400;49.360;8.266;2023-07-28T01:58:45;6.85;;;2.42;;
78156;SDS011;67400;49.360;8.266;2023-07-28T02:00:05;2.72;;;2.00;;
78156;SDS011;67400;49.360;8.266;2023-07-28T02:01:34;3.58;;;2.50;;
78156;SDS011;67400;49.360;8.266;2023-07-28T02:02:54;2.88;;;2.30;;
78156;SDS011;67400;49.360;8.266;2023-07-28T02:04:15;3.70;;;2.35;;
78156;SDS011;67400;49.360;8.266;2023-07-28T02:05:34;3.03;;;2.17;;
78156;SDS011;67400;49.360;8.266;2023-07-28T02:06:54;3.50;;;2.53;;
78156;SDS011;67400;49.360;8.266;2023-07-28T02:08:14;3.22;;;2.35;;
78156;SDS011;67400;49.360;8.266;2023-07-28T02:09:34;3.08;;;2.30;;
78156;SDS011;67400;49.360;8.266;2023-07-28T02:10:54;2.40;;;1.90;;
78156;SDS011;67400;49.360;8.266;2023-07-28T02:12:13;3.92;;;1.90;;
78156;SDS011;67400;49.360;8.266;2023-07-28T02:13:34;3.25;;;2.35;;
78156;SDS011;67400;49.360;8.266;2023-07-28T02:14:56;4.07;;;2.20;;
78156;SDS011;67400;49.360;8.266;2023-07-28T02:16:16;3.90;;;2.20;;
78156;SDS011;67400;49.360;8.266;2023-07-28T02:17:36;4.10;;;2.00;;
78156;SDS011;67400;49.360;8.266;2023-07-28T02:18:56;2.30;;;1.73;;
78156;SDS011;67400;49.360;8.266;2023-07-28T02:20:15;2.65;;;1.85;;
78156;SDS011;67400;49.360;8.266;2023-07-28T02:21:35;3.28;;;2.22;;
78156;SDS011;67400;49.360;8.266;2023-07-28T02:22:55;4.18;;;2.25;;
78156;SDS011;67400;49.360;8.266;2023-07-28T02:24:15;2.80;;;2.08;;
78156;SDS011;67400;49.360;8.266;2023-07-28T02:25:35;3.05;;;2.17;;
78156;SDS011;67400;49.360;8.266;2023-07-28T02:26:54;2.50;;;1.80;;
78156;SDS011;67400;49.360;8.266;2023-07-28T02:28:17;3.88;;;2.10;;
78156;SDS011;67400;49.360;8.266;2023-07-28T02:29:36;4.10;;;2.00;;
78156;SDS011;67400;49.360;8.266;2023-07-28T02:30:56;3.38;;;2.35;;
78156;SDS011;67400;49.360;8.266;2023-07-28T02:32:16;3.08;;;2.05;;
78156;SDS011;67400;49.360;8.266;2023-07-28T02:33:36;2.22;;;1.77;;
78156;SDS011;67400;49.360;8.266;2023-07-28T02:34:56;3.05;;;2.17;;
78156;SDS011;67400;49.360;8.266;2023-07-28T02:36:15;2.90;;;2.00;;
78156;SDS011;67400;49.360;8.266;2023-07-28T02:37:35;2.70;;;1.80;;
78156;SDS011;67400;49.360;8.266;2023-07-28T02:38:54;2.88;;;2.08;;
78156;SDS011;67400;49.360;8.266;2023-07-28T02:40:14;2.70;;;2.08;;
78156;SDS011;67400;49.360;8.266;2023-07-28T02:41:34;4.35;;;2.30;;
78156;SDS011;67400;49.360;8.266;2023-07-28T02:42:53;3.05;;;2.00;;
78156;SDS011;67400;49.360;8.266;2023-07-28T02:44:13;3.67;;;2.10;;
78156;SDS011;67400;49.360;8.266;2023-07-28T02:45:33;2.08;;;1.48;;
78156;SDS011;67400;49.360;8.266;2023-07-28T02:46:52;4.20;;;1.70;;
78156;SDS011;67400;49.360;8.266;2023-07-28T02:48:12;2.65;;;1.67;;
78156;SDS011;67400;49.360;8.266;2023-07-28T02:49:32;3.10;;;1.80;;
78156;SDS011;67400;49.360;8.266;2023-07-28T02:50:52;2.38;;;1.48;;
78156;SDS011;67400;49.360;8.266;2023-07-28T02:52:12;3.05;;;2.05;;
78156;SDS011;67400;49.360;8.266;2023-07-28T02:53:32;2.08;;;1.52;;
78156;SDS011;67400;49.360;8.266;2023-07-28T02:54:52;2.58;;;1.75;;
78156;SDS011;67400;49.360;8.266;2023-07-28T02:56:11;2.70;;;1.95;;
78156;SDS011;67400;49.360;8.266;2023-07-28T02:57:31;2.13;;;1.45;;
78156;SDS011;67400;49.360;8.266;2023-07-28T02:58:51;2.00;;;1.60;;
78156;SDS011;67400;49.360;8.266;2023-07-28T03:00:11;2.22;;;1.50;;
78156;SDS011;67400;49.360;8.266;2023-07-28T03:01:31;3.50;;;1.65;;
78156;SDS011;67400;49.360;8.266;2023-07-28T03:02:52;2.13;;;1.50;;
78156;SDS011;67400;49.360;8.266;2023-07-28T03:04:12;2.55;;;1.55;;
78156;SDS011;67400;49.360;8.266;2023-07-28T03:05:53;5.47;;;1.60;;
78156;SDS011;67400;49.360;8.266;2023-07-28T03:07:17;1.88;;;1.60;;
78156;SDS011;67400;49.360;8.266;2023-07-28T03:08:43;2.40;;;1.67;;
78156;SDS011;67400;49.360;8.266;2023-07-28T03:10:32;2.63;;;1.35;;
78156;SDS011;67400;49.360;8.266;2023-07-28T03:11:52;3.35;;;1.50;;
78156;SDS011;67400;49.360;8.266;2023-07-28T03:13:12;4.03;;;1.60;;
78156;SDS011;67400;49.360;8.266;2023-07-28T03:14:31;2.75;;;1.30;;
78156;SDS011;67400;49.360;8.266;2023-07-28T03:15:51;2.67;;;1.52;;
78156;SDS011;67400;49.360;8.266;2023-07-28T03:17:14;2.65;;;1.50;;
78156;SDS011;67400;49.360;8.266;2023-07-28T03:18:34;2.03;;;1.45;;
78156;SDS011;67400;49.360;8.266;2023-07-28T03:19:54;2.75;;;1.27;;
78156;SDS011;67400;49.360;8.266;2023-07-28T03:21:14;2.13;;;1.48;;
78156;SDS011;67400;49.360;8.266;2023-07-28T03:22:34;2.70;;;1.30;;
78156;SDS011;67400;49.360;8.266;2023-07-28T03:23:53;5.43;;;1.50;;
78156;SDS011;67400;49.360;8.266;2023-07-28T03:25:13;2.20;;;1.58;;
78156;SDS011;67400;49.360;8.266;2023-07-28T03:26:33;2.00;;;1.40;;
78156;SDS011;67400;49.360;8.266;2023-07-28T03:27:52;2.92;;;1.58;;
78156;SDS011;67400;49.360;8.266;2023-07-28T03:29:12;1.88;;;1.50;;
78156;SDS011;67400;49.360;8.266;2023-07-28T03:30:31;1.90;;;1.45;;
78156;SDS011;67400;49.360;8.266;2023-07-28T03:31:51;1.90;;;1.58;;
78156;SDS011;67400;49.360;8.266;2023-07-28T03:33:11;2.45;;;1.65;;
78156;SDS011;67400;49.360;8.266;2023-07-28T03:34:31;2.67;;;1.90;;
78156;SDS011;67400;49.360;8.266;2023-07-28T03:35:53;2.83;;;1.70;;
78156;SDS011;67400;49.360;8.266;2023-07-28T03:37:14;5.82;;;1.85;;
78156;SDS011;67400;49.360;8.266;2023-07-28T03:38:34;3.22;;;1.52;;
78156;SDS011;67400;49.360;8.266;2023-07-28T03:39:56;2.40;;;1.70;;
78156;SDS011;67400;49.360;8.266;2023-07-28T03:41:22;2.45;;;1.70;;
78156;SDS011;67400;49.360;8.266;2023-07-28T03:42:42;4.25;;;1.75;;
78156;SDS011;67400;49.360;8.266;2023-07-28T03:44:02;2.15;;;1.40;;
78156;SDS011;67400;49.360;8.266;2023-07-28T03:45:21;2.33;;;1.38;;
78156;SDS011;67400;49.360;8.266;2023-07-28T03:46:41;2.20;;;2.00;;
78156;SDS011;67400;49.360;8.266;2023-07-28T03:48:01;2.50;;;1.60;;
78156;SDS011;67400;49.360;8.266;2023-07-28T03:49:21;2.53;;;1.77;;
78156;SDS011;67400;49.360;8.266;2023-07-28T03:50:41;2.40;;;1.50;;
78156;SDS011;67400;49.360;8.266;2023-07-28T03:52:01;2.80;;;1.50;;
78156;SDS011;67400;49.360;8.266;2023-07-28T03:53:20;2.60;;;1.60;;
78156;SDS011;67400;49.360;8.266;2023-07-28T03:54:40;5.32;;;1.50;;
78156;SDS011;67400;49.360;8.266;2023-07-28T03:56:00;2.97;;;1.50;;
78156;SDS011;67400;49.360;8.266;2023-07-28T03:57:21;2.67;;;1.20;;
78156;SDS011;67400;49.360;8.266;2023-07-28T03:58:40;3.53;;;1.70;;
78156;SDS011;67400;49.360;8.266;2023-07-28T04:00:00;2.80;;;1.30;;
78156;SDS011;67400;49.360;8.266;2023-07-28T04:01:20;2.28;;;1.50;;
78156;SDS011;67400;49.360;8.266;2023-07-28T04:02:40;1.92;;;1.52;;
78156;SDS011;67400;49.360;8.266;2023-07-28T04:04:00;2.42;;;1.67;;
78156;SDS011;67400;49.360;8.266;2023-07-28T04:05:22;4.25;;;1.63;;
78156;SDS011;67400;49.360;8.266;2023-07-28T04:06:45;2.08;;;1.25;;
78156;SDS011;67400;49.360;8.266;2023-07-28T04:08:05;4.03;;;1.70;;
78156;SDS011;67400;49.360;8.266;2023-07-28T04:09:25;2.10;;;1.52;;
78156;SDS011;67400;49.360;8.266;2023-07-28T04:10:45;2.30;;;1.42;;
78156;SDS011;67400;49.360;8.266;2023-07-28T04:12:04;2.42;;;1.65;;
78156;SDS011;67400;49.360;8.266;2023-07-28T04:13:24;1.83;;;1.23;;
78156;SDS011;67400;49.360;8.266;2023-07-28T04:14:44;3.78;;;1.88;;
78156;SDS011;67400;49.360;8.266;2023-07-28T04:16:03;3.55;;;1.60;;
78156;SDS011;67400;49.360;8.266;2023-07-28T04:17:23;1.88;;;1.20;;
78156;SDS011;67400;49.360;8.266;2023-07-28T04:18:43;1.60;;;1.20;;
78156;SDS011;67400;49.360;8.266;2023-07-28T04:20:03;1.90;;;1.20;;
78156;SDS011;67400;49.360;8.266;2023-07-28T04:21:22;2.17;;;1.20;;
78156;SDS011;67400;49.360;8.266;2023-07-28T04:22:42;2.30;;;1.55;;
78156;SDS011;67400;49.360;8.266;2023-07-28T04:24:03;2.50;;;1.50;;
78156;SDS011;67400;49.360;8.266;2023-07-28T04:25:23;2.30;;;1.55;;
78156;SDS011;67400;49.360;8.266;2023-07-28T04:26:43;3.20;;;1.48;;
78156;SDS011;67400;49.360;8.266;2023-07-28T04:28:07;2.53;;;1.40;;
78156;SDS011;67400;49.360;8.266;2023-07-28T04:29:27;4.22;;;1.67;;
78156;SDS011;67400;49.360;8.266;2023-07-28T04:30:47;3.70;;;1.45;;
78156;SDS011;67400;49.360;8.266;2023-07-28T04:32:27;2.60;;;1.48;;
78156;SDS011;67400;49.360;8.266;2023-07-28T04:33:52;1.70;;;1.20;;
78156;SDS011;67400;49.360;8.266;2023-07-28T04:35:12;1.88;;;1.38;;
78156;SDS011;67400;49.360;8.266;2023-07-28T04:36:44;1.45;;;0.93;;
78156;SDS011;67400;49.360;8.266;2023-07-28T04:38:07;1.92;;;1.33;;
78156;SDS011;67400;49.360;8.266;2023-07-28T04:39:34;2.25;;;1.20;;
78156;SDS011;67400;49.360;8.266;2023-07-28T04:40:55;1.90;;;1.33;;
78156;SDS011;67400;49.360;8.266;2023-07-28T04:42:26;2.35;;;2.05;;
78156;SDS011;67400;49.360;8.266;2023-07-28T04:43:46;1.73;;;1.20;;
78156;SDS011;67400;49.360;8.266;2023-07-28T04:45:06;1.88;;;1.10;;
78156;SDS011;67400;49.360;8.266;2023-07-28T04:46:28;2.50;;;1.45;;
78156;SDS011;67400;49.360;8.266;2023-07-28T04:47:49;1.77;;;1.33;;
78156;SDS011;67400;49.360;8.266;2023-07-28T04:49:09;2.20;;;1.23;;
78156;SDS011;67400;49.360;8.266;2023-07-28T04:50:48;1.40;;;0.90;;
78156;SDS011;67400;49.360;8.266;2023-07-28T04:52:17;1.92;;;1.00;;
78156;SDS011;67400;49.360;8.266;2023-07-28T04:53:37;1.33;;;1.00;;
78156;SDS011;67400;49.360;8.266;2023-07-28T04:55:09;1.65;;;1.30;;
78156;SDS011;67400;49.360;8.266;2023-07-28T04:56:29;1.83;;;1.10;;
78156;SDS011;67400;49.360;8.266;2023-07-28T04:57:49;2.33;;;1.33;;
78156;SDS011;67400;49.360;8.266;2023-07-28T04:59:09;2.75;;;0.90;;
78156;SDS011;67400;49.360;8.266;2023-07-28T05:00:29;2.20;;;1.10;;
78156;SDS011;67400;49.360;8.266;2023-07-28T05:01:49;1.70;;;1.20;;
78156;SDS011;67400;49.360;8.266;2023-07-28T05:03:08;1.73;;;1.08;;
78156;SDS011;67400;49.360;8.266;2023-07-28T05:04:35;1.52;;;1.00;;
78156;SDS011;67400;49.360;8.266;2023-07-28T05:05:56;1.70;;;1.13;;
78156;SDS011;67400;49.360;8.266;2023-07-28T05:07:15;1.55;;;1.20;;
78156;SDS011;67400;49.360;8.266;2023-07-28T05:08:35;1.45;;;1.00;;
78156;SDS011;67400;49.360;8.266;2023-07-28T05:09:55;1.63;;;1.23;;
78156;SDS011;67400;49.360;8.266;2023-07-28T05:11:18;2.10;;;1.45;;
78156;SDS011;67400;49.360;8.266;2023-07-28T05:12:37;1.58;;;1.10;;
78156;SDS011;67400;49.360;8.266;2023-07-28T05:13:57;1.88;;;1.10;;
78156;SDS011;67400;49.360;8.266;2023-07-28T05:15:18;1.70;;;1.20;;
78156;SDS011;67400;49.360;8.266;2023-07-28T05:16:37;1.35;;;1.00;;
78156;SDS011;67400;49.360;8.266;2023-07-28T05:18:03;7.47;;;1.20;;
78156;SDS011;67400;49.360;8.266;2023-07-28T05:19:32;1.88;;;1.10;;
78156;SDS011;67400;49.360;8.266;2023-07-28T05:21:11;2.17;;;1.27;;
78156;SDS011;67400;49.360;8.266;2023-07-28T05:22:32;1.25;;;1.00;;
78156;SDS011;67400;49.360;8.266;2023-07-28T05:23:52;1.55;;;1.20;;
78156;SDS011;67400;49.360;8.266;2023-07-28T05:25:11;1.50;;;1.20;;
78156;SDS011;67400;49.360;8.266;2023-07-28T05:26:34;2.92;;;1.40;;
78156;SDS011;67400;49.360;8.266;2023-07-28T05:27:54;1.60;;;1.33;;
78156;SDS011;67400;49.360;8.266;2023-07-28T05:29:13;1.85;;;1.25;;
78156;SDS011;67400;49.360;8.266;2023-07-28T05:30:34;2.10;;;1.25;;
78156;SDS011;67400;49.360;8.266;2023-07-28T05:31:53;3.00;;;1.52;;
78156;SDS011;67400;49.360;8.266;2023-07-28T05:33:20;1.73;;;1.40;;
78156;SDS011;67400;49.360;8.266;2023-07-28T05:34:42;2.45;;;1.67;;
78156;SDS011;67400;49.360;8.266;2023-07-28T05:36:02;2.33;;;1.60;;
78156;SDS011;67400;49.360;8.266;2023-07-28T05:37:22;3.03;;;1.70;;
78156;SDS011;67400;49.360;8.266;2023-07-28T05:38:42;3.67;;;1.40;;
78156;SDS011;67400;49.360;8.266;2023-07-28T05:40:02;2.85;;;1.52;;
78156;SDS011;67400;49.360;8.266;2023-07-28T05:41:26;3.38;;;1.60;;
78156;SDS011;67400;49.360;8.266;2023-07-28T05:42:45;1.85;;;1.30;;
78156;SDS011;67400;49.360;8.266;2023-07-28T05:44:05;1.85;;;1.30;;
78156;SDS011;67400;49.360;8.266;2023-07-28T05:45:25;1.60;;;1.25;;
78156;SDS011;67400;49.360;8.266;2023-07-28T05:46:45;1.77;;;1.30;;
78156;SDS011;67400;49.360;8.266;2023-07-28T05:48:07;1.95;;;1.27;;
78156;SDS011;67400;49.360;8.266;2023-07-28T05:49:27;2.47;;;1.30;;
78156;SDS011;67400;49.360;8.266;2023-07-28T05:50:47;1.92;;;1.38;;
78156;SDS011;67400;49.360;8.266;2023-07-28T05:52:07;1.67;;;1.20;;
78156;SDS011;67400;49.360;8.266;2023-07-28T05:53:27;2.03;;;1.35;;
78156;SDS011;67400;49.360;8.266;2023-07-28T05:54:51;1.98;;;1.50;;
78156;SDS011;67400;49.360;8.266;2023-07-28T05:56:11;1.52;;;1.20;;
78156;SDS011;67400;49.360;8.266;2023-07-28T05:57:31;2.70;;;1.50;;
78156;SDS011;67400;49.360;8.266;2023-07-28T05:58:54;2.15;;;1.40;;
78156;SDS011;67400;49.360;8.266;2023-07-28T06:00:14;1.92;;;1.20;;
78156;SDS011;67400;49.360;8.266;2023-07-28T06:01:34;1.70;;;1.25;;
78156;SDS011;67400;49.360;8.266;2023-07-28T06:03:21;1.42;;;1.10;;
78156;SDS011;67400;49.360;8.266;2023-07-28T06:04:57;2.38;;;1.27;;
78156;SDS011;67400;49.360;8.266;2023-07-28T06:06:16;1.30;;;1.20;;
78156;SDS011;67400;49.360;8.266;2023-07-28T06:07:38;1.55;;;1.20;;
78156;SDS011;67400;49.360;8.266;2023-07-28T06:08:57;2.33;;;1.50;;
78156;SDS011;67400;49.360;8.266;2023-07-28T06:10:17;1.77;;;1.20;;
78156;SDS011;67400;49.360;8.266;2023-07-28T06:11:36;2.78;;;1.45;;
78156;SDS011;67400;49.360;8.266;2023-07-28T06:12:56;2.35;;;1.35;;
78156;SDS011;67400;49.360;8.266;2023-07-28T06:14:16;1.70;;;1.25;;
78156;SDS011;67400;49.360;8.266;2023-07-28T06:15:38;1.70;;;1.38;;
78156;SDS011;67400;49.360;8.266;2023-07-28T06:16:58;1.60;;;1.17;;
78156;SDS011;67400;49.360;8.266;2023-07-28T06:18:22;2.67;;;1.40;;
78156;SDS011;67400;49.360;8.266;2023-07-28T06:19:51;1.95;;;1.30;;
78156;SDS011;67400;49.360;8.266;2023-07-28T06:21:11;4.30;;;1.58;;
78156;SDS011;67400;49.360;8.266;2023-07-28T06:22:30;2.50;;;1.25;;
78156;SDS011;67400;49.360;8.266;2023-07-28T06:23:50;1.38;;;1.10;;
78156;SDS011;67400;49.360;8.266;2023-07-28T06:25:10;3.53;;;1.30;;
78156;SDS011;67400;49.360;8.266;2023-07-28T06:26:29;1.92;;;1.40;;
78156;SDS011;67400;49.360;8.266;2023-07-28T06:27:54;2.20;;;1.40;;
78156;SDS011;67400;49.360;8.266;2023-07-28T06:29:14;2.47;;;1.48;;
78156;SDS011;67400;49.360;8.266;2023-07-28T06:30:34;2.25;;;1.30;;
78156;SDS011;67400;49.360;8.266;2023-07-28T06:31:54;3.13;;;1.63;;
78156;SDS011;67400;49.360;8.266;2023-07-28T06:33:13;2.10;;;1.38;;
78156;SDS011;67400;49.360;8.266;2023-07-28T06:34:33;1.30;;;1.10;;
78156;SDS011;67400;49.360;8.266;2023-07-28T06:35:52;4.75;;;1.17;;
78156;SDS011;67400;49.360;8.266;2023-07-28T06:37:12;2.40;;;1.17;;
78156;SDS011;67400;49.360;8.266;2023-07-28T06:38:34;3.58;;;1.40;;
78156;SDS011;67400;49.360;8.266;2023-07-28T06:39:53;2.22;;;1.25;;
78156;SDS011;67400;49.360;8.266;2023-07-28T06:41:14;1.92;;;1.30;;
78156;SDS011;67400;49.360;8.266;2023-07-28T06:42:35;1.85;;;1.40;;
78156;SDS011;67400;49.360;8.266;2023-07-28T06:43:56;1.67;;;1.42;;
78156;SDS011;67400;49.360;8.266;2023-07-28T06:45:15;2.60;;;1.48;;
78156;SDS011;67400;49.360;8.266;2023-07-28T06:46:35;2.45;;;1.33;;
78156;SDS011;67400;49.360;8.266;2023-07-28T06:47:56;1.73;;;1.27;;
78156;SDS011;67400;49.360;8.266;2023-07-28T06:49:17;1.67;;;1.20;;
78156;SDS011;67400;49.360;8.266;2023-07-28T06:50:36;2.63;;;1.00;;
78156;SDS011;67400;49.360;8.266;2023-07-28T06:51:56;2.42;;;1.38;;
78156;SDS011;67400;49.360;8.266;2023-07-28T06:53:15;2.22;;;1.13;;
78156;SDS011;67400;49.360;8.266;2023-07-28T06:54:36;3.17;;;1.50;;
78156;SDS011;67400;49.360;8.266;2023-07-28T06:56:00;1.33;;;1.05;;
78156;SDS011;67400;49.360;8.266;2023-07-28T06:57:21;1.65;;;1.20;;
78156;SDS011;67400;49.360;8.266;2023-07-28T06:58:40;1.95;;;1.27;;
78156;SDS011;67400;49.360;8.266;2023-07-28T07:00:00;2.45;;;1.35;;
78156;SDS011;67400;49.360;8.266;2023-07-28T07:01:21;1.70;;;1.20;;
78156;SDS011;67400;49.360;8.266;2023-07-28T07:02:41;2.42;;;1.15;;
78156;SDS011;67400;49.360;8.266;2023-07-28T07:04:01;5.03;;;1.23;;
78156;SDS011;67400;49.360;8.266;2023-07-28T07:05:21;1.95;;;1.20;;
78156;SDS011;67400;49.360;8.266;2023-07-28T07:06:42;1.58;;;1.20;;
78156;SDS011;67400;49.360;8.266;2023-07-28T07:08:02;3.28;;;1.20;;
78156;SDS011;67400;49.360;8.266;2023-07-28T07:09:21;1.38;;;1.08;;
78156;SDS011;67400;49.360;8.266;2023-07-28T07:10:46;1.58;;;1.10;;
78156;SDS011;67400;49.360;8.266;2023-07-28T07:12:09;2.15;;;1.45;;
78156;SDS011;67400;49.360;8.266;2023-07-28T07:13:29;2.28;;;1.48;;
78156;SDS011;67400;49.360;8.266;2023-07-28T07:14:49;2.20;;;1.00;;
78156;SDS011;67400;49.360;8.266;2023-07-28T07:16:14;2.15;;;1.40;;
78156;SDS011;67400;49.360;8.266;2023-07-28T07:17:35;1.65;;;1.10;;
78156;SDS011;67400;49.360;8.266;2023-07-28T07:18:55;1.52;;;0.98;;
78156;SDS011;67400;49.360;8.266;2023-07-28T07:20:14;2.72;;;1.10;;
78156;SDS011;67400;49.360;8.266;2023-07-28T07:21:34;1.92;;;1.20;;
78156;SDS011;67400;49.360;8.266;2023-07-28T07:22:54;1.17;;;1.00;;
78156;SDS011;67400;49.360;8.266;2023-07-28T07:24:13;1.50;;;1.15;;
78156;SDS011;67400;49.360;8.266;2023-07-28T07:25:33;1.63;;;1.10;;
78156;SDS011;67400;49.360;8.266;2023-07-28T07:26:55;1.50;;;1.13;;
78156;SDS011;67400;49.360;8.266;2023-07-28T07:28:14;2.10;;;1.10;;
78156;SDS011;67400;49.360;8.266;2023-07-28T07:29:34;1.55;;;1.08;;
78156;SDS011;67400;49.360;8.266;2023-07-28T07:30:57;1.48;;;1.10;;
78156;SDS011;67400;49.360;8.266;2023-07-28T07:32:16;1.27;;;1.05;;
78156;SDS011;67400;49.360;8.266;2023-07-28T07:33:36;1.17;;;0.88;;
78156;SDS011;67400;49.360;8.266;2023-07-28T07:34:55;1.70;;;0.95;;
78156;SDS011;67400;49.360;8.266;2023-07-28T07:36:16;1.90;;;1.10;;
78156;SDS011;67400;49.360;8.266;2023-07-28T07:37:35;1.50;;;1.00;;
78156;SDS011;67400;49.360;8.266;2023-07-28T07:38:55;1.83;;;1.15;;
78156;SDS011;67400;49.360;8.266;2023-07-28T07:40:14;1.35;;;1.20;;
78156;SDS011;67400;49.360;8.266;2023-07-28T07:41:34;1.70;;;1.02;;
78156;SDS011;67400;49.360;8.266;2023-07-28T07:42:53;3.50;;;1.30;;
78156;SDS011;67400;49.360;8.266;2023-07-28T07:44:15;1.20;;;1.00;;
78156;SDS011;67400;49.360;8.266;2023-07-28T07:45:34;2.03;;;1.08;;
78156;SDS011;67400;49.360;8.266;2023-07-28T07:46:54;2.78;;;1.00;;
78156;SDS011;67400;49.360;8.266;2023-07-28T07:48:14;2.78;;;1.05;;
78156;SDS011;67400;49.360;8.266;2023-07-28T07:49:34;2.50;;;1.13;;
78156;SDS011;67400;49.360;8.266;2023-07-28T07:50:53;1.20;;;1.10;;
78156;SDS011;67400;49.360;8.266;2023-07-28T07:52:13;2.42;;;1.48;;
78156;SDS011;67400;49.360;8.266;2023-07-28T07:53:33;1.67;;;1.13;;
78156;SDS011;67400;49.360;8.266;2023-07-28T07:54:52;3.38;;;1.70;;
78156;SDS011;67400;49.360;8.266;2023-07-28T07:56:11;4.60;;;1.23;;
78156;SDS011;67400;49.360;8.266;2023-07-28T07:57:31;2.65;;;1.30;;
78156;SDS011;67400;49.360;8.266;2023-07-28T07:58:51;2.20;;;1.13;;
78156;SDS011;67400;49.360;8.266;2023-07-28T08:00:11;1.63;;;1.30;;
78156;SDS011;67400;49.360;8.266;2023-07-28T08:01:34;1.98;;;1.17;;
78156;SDS011;67400;49.360;8.266;2023-07-28T08:02:53;1.73;;;1.10;;
78156;SDS011;67400;49.360;8.266;2023-07-28T08:04:13;3.78;;;1.20;;
78156;SDS011;67400;49.360;8.266;2023-07-28T08:05:33;3.40;;;1.15;;
78156;SDS011;67400;49.360;8.266;2023-07-28T08:06:53;2.30;;;1.00;;
78156;SDS011;67400;49.360;8.266;2023-07-28T08:08:13;1.45;;;1.17;;
78156;SDS011;67400;49.360;8.266;2023-07-28T08:09:35;1.73;;;1.30;;
78156;SDS011;67400;49.360;8.266;2023-07-28T08:10:56;1.33;;;1.20;;
78156;SDS011;67400;49.360;8.266;2023-07-28T08:12:15;1.90;;;1.50;;
78156;SDS011;67400;49.360;8.266;2023-07-28T08:13:35;1.30;;;1.10;;